Time;durP1;ratioP1;P1;durP2;ratioP2;P2;SDS_P1;SDS_P2;PMS_P1;PMS_P2;Temp;Humidity;BMP_temperature;BMP_pressure;BME280_temperature;BME280_humidity;BME280_pressure;Samples;Min_cycle;Max_cycle;Signal;HPM_P1;HPM_P2
2022/06/12 03:00:19;;;;;;;1.33;1.00;;;25.10;42.80;;;;;;6094695;23;45835;31
2022/06/12 03:02:57;;;;;;;3.47;1.42;;;25.10;42.80;;;;;;4879444;28;45281;-62
2022/06/12 03:05:33;;;;;;;1.63;1.20;;;25.10;42.70;;;;;;4909988;28;45210;-60
2022/06/12 03:08:06;;;;;;;1.90;1.15;;;25.10;42.70;;;;;;4879859;28;46288;-58
2022/06/12 03:10:39;;;;;;;2.23;1.20;;;25.00;42.70;;;;;;4873387;28;45581;-63
2022/06/12 03:13:06;;;;;;;1.30;1.20;;;25.10;42.80;;;;;;4869110;28;45107;-58
2022/06/12 03:15:38;;;;;;;2.97;1.23;;;25.00;42.80;;;;;;4891470;28;45685;-61
2022/06/12 03:18:04;;;;;;;1.80;1.20;;;25.00;42.80;;;;;;4893333;28;46736;-61
2022/06/12 03:20:48;;;;;;;1.73;1.58;;;25.00;42.90;;;;;;4880188;28;45330;-60
2022/06/12 03:23:33;;;;;;;2.00;1.08;;;25.00;42.90;;;;;;4881417;28;45430;-64
2022/06/12 03:25:59;;;;;;;2.00;1.30;;;25.00;42.80;;;;;;4884569;28;45408;-59
2022/06/12 03:28:31;;;;;;;2.55;1.10;;;25.00;42.90;;;;;;4883624;28;45443;-60
2022/06/12 03:31:17;;;;;;;3.67;1.73;;;25.00;42.90;;;;;;4865265;28;45711;-65
2022/06/12 03:33:57;;;;;;;3.13;1.60;;;25.00;42.80;;;;;;4884987;28;45848;-64
2022/06/12 03:36:26;;;;;;;2.13;1.48;;;25.00;42.90;;;;;;4865075;28;45267;-58
2022/06/12 03:38:57;;;;;;;1.92;1.55;;;24.90;42.90;;;;;;4891412;28;45347;-62
2022/06/12 03:41:29;;;;;;;3.38;1.90;;;24.90;43.00;;;;;;4895333;28;45468;-57
2022/06/12 03:44:14;;;;;;;2.00;1.42;;;24.90;42.90;;;;;;4894302;28;45284;-59
2022/06/12 03:46:45;;;;;;;2.97;1.63;;;24.90;42.90;;;;;;4884001;28;45683;-59
2022/06/12 03:49:26;;;;;;;2.08;1.40;;;24.90;42.90;;;;;;4881719;28;45222;-60
2022/06/12 03:52:14;;;;;;;2.15;1.50;;;24.90;43.00;;;;;;4893974;28;45694;-61
2022/06/12 03:54:45;;;;;;;1.50;1.40;;;24.90;43.00;;;;;;4873127;28;45324;-62
2022/06/12 04:00:07;;;;;;;1.88;1.27;;;24.90;43.00;;;;;;4882113;28;45457;-61
2022/06/12 04:02:32;;;;;;;5.15;1.90;;;24.90;43.70;;;;;;4877387;28;45913;-56
2022/06/12 04:04:58;;;;;;;1.63;1.52;;;24.90;43.00;;;;;;4880597;28;45301;-60
2022/06/12 04:07:24;;;;;;;2.65;1.50;;;24.80;43.00;;;;;;4881924;28;45683;-58
2022/06/12 04:09:52;;;;;;;3.05;1.60;;;24.90;43.00;;;;;;4890366;28;45639;-60
2022/06/12 04:12:23;;;;;;;2.85;1.60;;;24.90;43.10;;;;;;4865900;28;47025;-63
2022/06/12 04:14:57;;;;;;;4.40;1.92;;;24.90;43.00;;;;;;4864365;28;45266;-63
2022/06/12 04:17:22;;;;;;;2.70;1.67;;;24.80;43.00;;;;;;4866638;28;45371;-55
2022/06/12 04:20:00;;;;;;;2.25;1.80;;;24.90;43.00;;;;;;4880945;28;45316;-56
2022/06/12 04:22:51;;;;;;;2.53;1.98;;;24.80;43.10;;;;;;4880797;28;45403;-60
2022/06/12 04:25:44;;;;;;;2.22;1.65;;;24.90;43.20;;;;;;4893644;28;44982;-59
2022/06/12 04:28:45;;;;;;;2.17;1.80;;;24.80;43.20;;;;;;4879761;28;44836;-54
2022/06/12 04:31:19;;;;;;;2.25;1.70;;;24.80;43.30;;;;;;4861208;29;45140;-62
2022/06/12 04:34:04;;;;;;;2.53;1.75;;;24.80;43.30;;;;;;4889547;28;45529;-56
2022/06/12 04:36:30;;;;;;;1.77;1.40;;;24.80;43.30;;;;;;4892592;28;45147;-58
2022/06/12 04:38:56;;;;;;;2.83;1.85;;;24.80;43.30;;;;;;4849602;28;46388;-60
2022/06/12 04:41:25;;;;;;;2.90;1.55;;;24.80;43.40;;;;;;4893228;28;45621;-61
2022/06/12 04:43:50;;;;;;;2.70;1.60;;;24.80;43.40;;;;;;4880774;28;46951;-61
2022/06/12 04:46:16;;;;;;;3.58;1.83;;;24.80;43.50;;;;;;4892498;28;44708;-57
2022/06/12 04:48:43;;;;;;;5.10;1.60;;;24.80;43.40;;;;;;4882735;28;45276;-60
2022/06/12 04:51:09;;;;;;;2.05;1.55;;;24.80;43.50;;;;;;4887716;28;45564;-59
2022/06/12 04:53:35;;;;;;;2.45;1.58;;;24.80;43.50;;;;;;4879173;28;45598;-58
2022/06/12 04:56:01;;;;;;;2.53;1.92;;;24.80;43.60;;;;;;4895305;28;46237;-59
2022/06/12 04:58:27;;;;;;;3.13;1.73;;;24.90;43.60;;;;;;4883144;28;46205;-59
2022/06/12 05:00:53;;;;;;;2.47;2.00;;;24.90;43.70;;;;;;4890932;28;44837;-57
2022/06/12 05:03:19;;;;;;;4.95;2.15;;;24.90;43.70;;;;;;4894535;28;46380;-59
2022/06/12 05:05:45;;;;;;;3.60;1.90;;;24.90;43.80;;;;;;4893100;28;46339;-59
2022/06/12 05:08:10;;;;;;;3.25;2.40;;;24.90;43.80;;;;;;4893239;28;45259;-60
2022/06/12 05:10:36;;;;;;;3.72;1.95;;;24.90;43.90;;;;;;4883320;28;45960;-62
2022/06/12 05:13:02;;;;;;;2.83;1.70;;;24.90;43.90;;;;;;4891490;28;45742;-61
2022/06/12 05:15:28;;;;;;;2.47;1.80;;;25.00;43.90;;;;;;4878318;28;45442;-57
2022/06/12 05:17:53;;;;;;;3.45;2.13;;;24.90;43.90;;;;;;4893481;28;45355;-60
2022/06/12 05:20:26;;;;;;;4.18;2.20;;;25.00;44.00;;;;;;4881278;28;46281;-59
2022/06/12 05:22:51;;;;;;;4.13;2.10;;;25.00;44.00;;;;;;4882463;28;45675;-62
2022/06/12 05:25:17;;;;;;;4.10;1.98;;;24.90;44.10;;;;;;4894194;28;45736;-59
2022/06/12 05:27:45;;;;;;;3.70;2.20;;;25.00;44.20;;;;;;4892692;28;46436;-63
2022/06/12 05:30:13;;;;;;;2.55;2.13;;;25.00;44.10;;;;;;4874883;28;45024;-62
2022/06/12 05:32:39;;;;;;;3.38;2.00;;;25.00;44.10;;;;;;4875183;28;45635;-62
2022/06/12 05:35:05;;;;;;;2.85;2.20;;;25.00;44.20;;;;;;4884640;28;45731;-60
2022/06/12 05:37:30;;;;;;;2.67;1.80;;;25.00;44.20;;;;;;4896147;28;45275;-62
2022/06/12 05:39:56;;;;;;;2.33;2.13;;;25.00;44.30;;;;;;4893106;28;46391;-58
2022/06/12 05:42:22;;;;;;;3.10;2.35;;;25.00;44.40;;;;;;4878988;28;47072;-60
2022/06/12 05:44:48;;;;;;;2.75;2.10;;;25.10;44.40;;;;;;4897315;28;45517;-61
2022/06/12 05:47:13;;;;;;;4.25;2.00;;;25.10;44.40;;;;;;4884603;28;45888;-61
2022/06/12 05:49:39;;;;;;;2.88;2.47;;;25.10;44.40;;;;;;4895486;28;45540;-63
2022/06/12 05:52:05;;;;;;;4.50;2.08;;;25.10;44.40;;;;;;4896119;28;45791;-58
2022/06/12 05:54:30;;;;;;;4.18;2.08;;;25.20;44.50;;;;;;4881702;28;45347;-63
2022/06/12 05:56:56;;;;;;;2.28;2.00;;;25.20;44.40;;;;;;4896276;28;45383;-58
2022/06/12 05:59:22;;;;;;;2.42;2.05;;;25.20;44.30;;;;;;4898364;28;46284;-57
2022/06/12 06:01:47;;;;;;;2.63;1.88;;;25.30;44.30;;;;;;4897445;28;46710;-56
2022/06/12 06:04:13;;;;;;;3.45;1.90;;;25.30;44.40;;;;;;4899369;28;45543;-56
2022/06/12 06:06:51;;;;;;;2.58;1.80;;;25.20;44.40;;;;;;4899119;28;45663;-59
2022/06/12 06:09:16;;;;;;;2.97;1.88;;;25.20;44.50;;;;;;4869427;28;45501;-57
2022/06/12 06:11:42;;;;;;;3.35;1.90;;;25.20;44.60;;;;;;4897283;28;45276;-59
2022/06/12 06:14:08;;;;;;;2.90;1.92;;;25.20;44.60;;;;;;4898071;28;45266;-60
2022/06/12 06:16:36;;;;;;;2.05;1.83;;;25.20;44.60;;;;;;4898382;28;45749;-59
2022/06/12 06:19:02;;;;;;;3.08;2.10;;;25.20;44.70;;;;;;4897557;28;45619;-59
2022/06/12 06:21:27;;;;;;;2.28;2.08;;;25.20;44.70;;;;;;4897324;28;45844;-57
2022/06/12 06:23:53;;;;;;;3.15;2.25;;;25.20;44.60;;;;;;4897440;28;46129;-57
2022/06/12 06:26:19;;;;;;;2.38;2.10;;;25.30;44.70;;;;;;4897383;28;45248;-57
2022/06/12 06:28:45;;;;;;;3.78;2.10;;;25.30;44.60;;;;;;4897373;28;45705;-62
2022/06/12 06:31:10;;;;;;;3.63;2.00;;;25.40;44.50;;;;;;4895304;28;45318;-60
2022/06/12 06:33:36;;;;;;;2.58;2.33;;;25.40;44.30;;;;;;4896042;28;45028;-63
2022/06/12 06:36:02;;;;;;;2.33;2.10;;;25.50;44.20;;;;;;4894538;28;45215;-58
2022/06/12 06:38:28;;;;;;;2.58;2.20;;;25.60;44.00;;;;;;4895983;28;45345;-60
2022/06/12 06:40:54;;;;;;;2.67;2.28;;;25.70;43.90;;;;;;4895736;28;46106;-58
2022/06/12 06:43:19;;;;;;;2.40;2.20;;;25.70;43.80;;;;;;4883667;28;45726;-59
2022/06/12 06:48:29;;;;;;;3.10;2.03;;;25.90;43.70;;;;;;4897425;28;45261;-58
2022/06/12 06:50:55;;;;;;;5.75;2.00;;;25.90;43.60;;;;;;4882968;28;45446;-62
2022/06/12 06:53:20;;;;;;;2.28;2.08;;;25.90;43.60;;;;;;4897330;28;45342;-56
2022/06/12 06:55:46;;;;;;;2.05;1.80;;;26.00;43.60;;;;;;4882515;28;45789;-57
2022/06/12 06:58:14;;;;;;;2.20;2.00;;;26.00;43.50;;;;;;4895782;28;44875;-61
2022/06/12 07:00:41;;;;;;;2.88;2.10;;;26.00;44.10;;;;;;4895292;28;45902;-63
2022/06/12 07:03:07;;;;;;;3.17;2.13;;;26.10;43.50;;;;;;4884353;28;45585;-59
2022/06/12 07:05:32;;;;;;;4.25;2.17;;;26.10;43.50;;;;;;4896610;28;45268;-58
2022/06/12 07:07:58;;;;;;;2.20;2.00;;;26.10;43.50;;;;;;4884446;28;45651;-57
2022/06/12 07:10:24;;;;;;;2.90;1.92;;;26.20;43.50;;;;;;4895403;28;47140;-57
2022/06/12 07:12:51;;;;;;;2.33;1.88;;;26.20;43.50;;;;;;4896664;28;45191;-56
2022/06/12 07:15:17;;;;;;;2.30;1.92;;;26.20;43.40;;;;;;4898034;28;45763;-60
2022/06/12 07:17:43;;;;;;;2.10;1.90;;;26.30;43.50;;;;;;4870963;28;45534;-64
2022/06/12 07:20:09;;;;;;;3.83;1.95;;;26.20;43.40;;;;;;4894026;28;45442;-58
2022/06/12 07:22:35;;;;;;;3.50;2.00;;;26.30;43.40;;;;;;4878601;28;45408;-59
2022/06/12 07:25:00;;;;;;;1.73;1.63;;;26.30;43.40;;;;;;4895340;28;45638;-57
2022/06/12 07:27:26;;;;;;;3.13;1.80;;;26.40;43.40;;;;;;4894262;28;46347;-61
2022/06/12 07:29:52;;;;;;;3.03;2.00;;;26.40;43.40;;;;;;4884675;28;45693;-59
2022/06/12 07:32:17;;;;;;;1.90;1.70;;;26.40;43.40;;;;;;4891124;28;45443;-63
2022/06/12 07:34:43;;;;;;;3.65;1.90;;;26.40;43.30;;;;;;4894777;28;45563;-61
2022/06/12 07:37:08;;;;;;;2.20;2.00;;;26.50;43.40;;;;;;4894248;28;45630;-60
2022/06/12 07:39:34;;;;;;;2.53;2.00;;;26.50;43.30;;;;;;4877241;28;47299;-60
2022/06/12 07:42:00;;;;;;;2.35;2.10;;;26.50;43.20;;;;;;4878338;28;46444;-59
2022/06/12 07:44:28;;;;;;;3.42;1.65;;;26.60;43.20;;;;;;4861576;28;45676;-64
2022/06/12 07:46:55;;;;;;;3.75;2.22;;;26.60;43.20;;;;;;4892304;28;45335;-57
2022/06/12 07:49:21;;;;;;;2.72;1.85;;;26.60;43.20;;;;;;4891960;28;47961;-60
2022/06/12 07:51:46;;;;;;;1.60;1.50;;;26.70;43.20;;;;;;4875356;28;45480;-62
2022/06/12 07:54:12;;;;;;;1.77;1.67;;;26.70;43.20;;;;;;4890807;28;46484;-62
2022/06/12 07:56:38;;;;;;;2.20;1.60;;;26.70;43.20;;;;;;4895816;28;45645;-59
2022/06/12 07:59:04;;;;;;;3.08;1.83;;;26.70;43.20;;;;;;4894832;28;45761;-61
2022/06/12 08:01:30;;;;;;;1.98;1.75;;;26.70;43.10;;;;;;4893735;28;45095;-60
2022/06/12 08:03:55;;;;;;;3.78;1.75;;;26.80;43.10;;;;;;4882999;28;45790;-60
2022/06/12 08:06:21;;;;;;;2.13;1.90;;;26.80;43.00;;;;;;4896788;28;45292;-60
2022/06/12 08:08:47;;;;;;;3.42;1.70;;;26.80;43.00;;;;;;4882176;28;45442;-59
2022/06/12 08:11:13;;;;;;;3.45;1.80;;;26.80;42.90;;;;;;4894106;28;45282;-58
2022/06/12 08:13:38;;;;;;;1.63;1.45;;;26.90;43.00;;;;;;4866757;28;45516;-55
2022/06/12 08:16:04;;;;;;;2.72;1.48;;;26.90;42.90;;;;;;4881757;28;45288;-63
2022/06/12 08:18:30;;;;;;;2.80;1.70;;;26.90;43.00;;;;;;4895164;28;45872;-61
2022/06/12 08:21:04;;;;;;;2.13;1.75;;;26.90;42.90;;;;;;4892970;28;44969;-62
2022/06/12 08:23:33;;;;;;;3.47;1.50;;;26.90;42.90;;;;;;4882846;28;45659;-61
2022/06/12 08:26:14;;;;;;;2.80;1.98;;;26.90;42.90;;;;;;4875151;28;45643;-60
2022/06/12 08:28:41;;;;;;;3.03;1.90;;;27.00;42.90;;;;;;4893875;28;46169;-58
2022/06/12 08:31:07;;;;;;;3.88;1.63;;;27.00;43.00;;;;;;4881705;28;45748;-59
2022/06/12 08:33:33;;;;;;;2.15;1.70;;;27.00;42.90;;;;;;4866272;28;45611;-60
2022/06/12 08:35:59;;;;;;;1.42;1.30;;;27.00;42.90;;;;;;4864083;28;44901;-63
2022/06/12 08:38:24;;;;;;;2.35;1.67;;;27.00;42.90;;;;;;4861890;28;46532;-57
2022/06/12 08:41:07;;;;;;;2.72;1.42;;;27.00;42.90;;;;;;4890743;28;45657;-59
2022/06/12 08:43:57;;;;;;;2.60;1.75;;;27.00;42.80;;;;;;4880206;28;45506;-61
2022/06/12 08:46:44;;;;;;;1.85;1.60;;;27.00;42.80;;;;;;4879786;28;46226;-57
2022/06/12 08:49:22;;;;;;;3.50;1.27;;;27.10;42.80;;;;;;4866601;28;46733;-64
2022/06/12 08:51:59;;;;;;;1.88;1.40;;;27.10;42.80;;;;;;4891761;28;46209;-60
2022/06/12 08:54:39;;;;;;;4.22;1.55;;;27.10;42.80;;;;;;4893110;28;45698;-57
2022/06/12 08:57:08;;;;;;;4.80;1.88;;;27.10;42.70;;;;;;4881807;28;45467;-58
2022/06/12 08:59:45;;;;;;;2.45;1.85;;;27.10;42.70;;;;;;4863948;28;45795;-59
2022/06/12 09:02:26;;;;;;;1.83;1.65;;;27.10;42.70;;;;;;4890630;28;45698;-61
2022/06/12 09:04:52;;;;;;;2.17;1.98;;;27.10;42.70;;;;;;4869147;28;45691;-61
2022/06/12 09:07:30;;;;;;;2.13;1.75;;;27.10;42.70;;;;;;4895384;28;45274;-55
2022/06/12 09:10:05;;;;;;;2.17;1.40;;;27.10;42.60;;;;;;4890968;28;46110;-56
2022/06/12 09:12:39;;;;;;;2.47;1.80;;;27.20;42.70;;;;;;4882089;28;45266;-62
2022/06/12 09:15:07;;;;;;;2.70;1.58;;;27.20;42.70;;;;;;4863877;28;45616;-60
2022/06/12 09:17:41;;;;;;;2.47;1.70;;;27.20;42.60;;;;;;4887196;28;45694;-59
2022/06/12 09:20:07;;;;;;;1.40;1.25;;;27.20;42.60;;;;;;4866512;28;46246;-58
2022/06/12 09:22:51;;;;;;;1.95;1.40;;;27.20;42.60;;;;;;4888034;28;45863;-60
2022/06/12 09:25:19;;;;;;;2.30;1.60;;;27.30;42.70;;;;;;4892504;28;45346;-60
2022/06/12 09:27:59;;;;;;;2.67;1.60;;;27.30;42.60;;;;;;4892674;28;45950;-60
2022/06/12 09:30:43;;;;;;;1.92;1.70;;;27.30;42.60;;;;;;4881602;28;46246;-55
2022/06/12 09:33:19;;;;;;;1.95;1.45;;;27.30;42.50;;;;;;4894255;28;45728;-60
2022/06/12 09:35:52;;;;;;;1.40;1.30;;;27.30;42.50;;;;;;4865469;28;46380;-59
2022/06/12 09:38:57;;;;;;;2.13;1.77;;;27.30;42.50;;;;;;4880341;28;45232;-61
2022/06/12 09:41:46;;;;;;;3.35;1.50;;;27.30;42.50;;;;;;4893116;28;46715;-60
2022/06/12 09:44:12;;;;;;;2.72;1.70;;;27.40;42.50;;;;;;4865410;28;44952;-60
2022/06/12 09:46:58;;;;;;;1.77;1.60;;;27.40;42.50;;;;;;4871740;28;45761;-59
2022/06/12 09:49:31;;;;;;;1.75;1.52;;;27.40;42.50;;;;;;4877404;28;45831;-59
2022/06/12 09:52:08;;;;;;;;;;;27.40;42.50;;;;;;4890728;28;46280;-59
2022/06/12 09:54:41;;;;;;;1.55;1.45;;;27.40;42.50;;;;;;4876332;28;45628;-62
2022/06/12 09:57:19;;;;;;;1.80;1.50;;;27.40;42.50;;;;;;4877767;28;46205;-60
2022/06/12 10:00:03;;;;;;;1.77;1.45;;;27.40;42.40;;;;;;4892648;28;45659;-61
2022/06/12 10:02:40;;;;;;;1.50;1.40;;;27.40;42.40;;;;;;4879626;28;47248;-57
2022/06/12 10:05:16;;;;;;;1.88;1.50;;;27.40;42.40;;;;;;4873469;28;46163;-58
2022/06/12 10:08:11;;;;;;;1.63;1.52;;;27.40;42.30;;;;;;4885700;28;45910;-58
2022/06/12 10:10:49;;;;;;;3.40;1.80;;;27.50;42.30;;;;;;4881050;28;46397;-59
2022/06/12 10:13:20;;;;;;;2.20;1.70;;;27.50;42.30;;;;;;4892035;28;45736;-59
2022/06/12 10:15:52;;;;;;;1.80;1.60;;;27.50;42.30;;;;;;4859912;28;44660;-62
2022/06/12 10:18:32;;;;;;;1.42;1.33;;;27.50;42.30;;;;;;4866641;28;45569;-60
2022/06/12 10:21:06;;;;;;;1.88;1.30;;;27.50;42.30;;;;;;4881334;28;45503;-59
2022/06/12 10:23:32;;;;;;;1.55;1.45;;;27.60;42.30;;;;;;4878931;28;45649;-60
2022/06/12 10:25:59;;;;;;;2.08;1.63;;;27.60;42.40;;;;;;4881887;28;45275;-56
2022/06/12 10:28:33;;;;;;;1.92;1.52;;;27.60;42.30;;;;;;4869370;28;45051;-62
2022/06/12 10:31:04;;;;;;;1.90;1.55;;;27.60;42.30;;;;;;4887834;28;45707;-62
2022/06/12 10:33:31;;;;;;;1.92;1.40;;;27.60;42.30;;;;;;4895007;28;46406;-58
2022/06/12 10:35:59;;;;;;;1.50;1.40;;;27.60;42.30;;;;;;4895184;28;45622;-59
2022/06/12 10:38:27;;;;;;;1.67;1.50;;;27.60;42.30;;;;;;4892288;28;45474;-59
2022/06/12 10:41:02;;;;;;;2.05;1.38;;;27.60;42.30;;;;;;4892362;28;44901;-60
2022/06/12 10:43:33;;;;;;;1.50;1.40;;;27.60;42.30;;;;;;4881173;28;45378;-59
2022/06/12 10:46:15;;;;;;;1.77;1.67;;;27.60;42.30;;;;;;4874462;28;45888;-57
2022/06/12 10:48:41;;;;;;;1.98;1.70;;;27.60;42.30;;;;;;4900925;28;45765;-61
2022/06/12 10:51:22;;;;;;;1.48;1.38;;;27.60;42.30;;;;;;4899548;28;45340;-59
2022/06/12 10:53:54;;;;;;;2.35;1.55;;;27.70;42.30;;;;;;4900079;28;45514;-60
2022/06/12 10:56:22;;;;;;;;;;;27.70;42.40;;;;;;4887186;28;45803;-56
2022/06/12 10:59:28;;;;;;;2.03;1.33;;;27.70;42.30;;;;;;4898164;28;44762;-56
2022/06/12 11:02:08;;;;;;;1.42;1.33;;;27.70;42.20;;;;;;4897884;28;44799;-57
2022/06/12 11:05:05;;;;;;;1.40;1.30;;;27.70;42.30;;;;;;4879941;28;46965;-58
2022/06/12 11:07:51;;;;;;;1.60;1.50;;;27.70;42.30;;;;;;4884491;28;44806;-55
2022/06/12 11:10:41;;;;;;;1.58;1.48;;;27.70;42.30;;;;;;4855950;28;45838;-58
2022/06/12 11:13:22;;;;;;;1.52;1.42;;;27.70;42.30;;;;;;4889498;28;45740;-56
2022/06/12 11:16:17;;;;;;;1.98;1.40;;;27.70;42.20;;;;;;4880932;28;45294;-56
2022/06/12 11:19:11;;;;;;;1.58;1.40;;;27.70;42.20;;;;;;4897760;28;45166;-59
2022/06/12 11:21:51;;;;;;;1.60;1.45;;;27.70;42.20;;;;;;4887168;28;46175;-58
2022/06/12 11:24:22;;;;;;;1.52;1.42;;;27.70;42.20;;;;;;4901156;28;45681;-59
2022/06/12 11:26:52;;;;;;;1.65;1.40;;;27.80;42.30;;;;;;4885625;28;45451;-60
2022/06/12 11:29:26;;;;;;;1.98;1.58;;;27.80;42.30;;;;;;4885196;28;45672;-60
2022/06/12 11:32:10;;;;;;;1.40;1.30;;;27.80;42.30;;;;;;4898758;28;46047;-57
2022/06/12 11:34:42;;;;;;;1.35;1.25;;;27.80;42.20;;;;;;4898554;28;45371;-57
2022/06/12 11:37:35;;;;;;;1.40;1.30;;;27.80;42.30;;;;;;4882072;28;46160;-58
2022/06/12 11:40:34;;;;;;;2.35;1.63;;;27.80;42.10;;;;;;4871360;28;45681;-60
2022/06/12 11:43:21;;;;;;;1.60;1.38;;;27.80;42.10;;;;;;4873236;28;45390;-58
2022/06/12 11:45:55;;;;;;;2.13;1.33;;;27.90;42.20;;;;;;4897328;28;46169;-62
2022/06/12 11:48:42;;;;;;;1.90;1.60;;;27.90;42.30;;;;;;4880788;28;45962;-59
2022/06/12 11:51:27;;;;;;;1.67;1.50;;;27.90;42.20;;;;;;4889147;28;45536;-58
2022/06/12 11:54:07;;;;;;;2.25;1.30;;;27.90;42.20;;;;;;4872343;28;44762;-61
2022/06/12 11:56:54;;;;;;;2.83;1.40;;;27.90;42.20;;;;;;4883739;28;45430;-59
2022/06/12 11:59:49;;;;;;;1.42;1.33;;;27.90;42.20;;;;;;4873749;28;45729;-59
2022/06/12 12:02:50;;;;;;;1.33;1.23;;;27.90;42.20;;;;;;4881079;28;46179;-57
2022/06/12 12:05:18;;;;;;;1.20;1.10;;;27.90;42.10;;;;;;4878134;28;45479;-63
2022/06/12 12:08:11;;;;;;;1.45;1.30;;;27.90;42.20;;;;;;4887997;28;45834;-57
2022/06/12 12:10:54;;;;;;;3.45;1.77;;;27.90;42.10;;;;;;4899981;28;47133;-58
2022/06/12 12:13:29;;;;;;;2.22;1.85;;;27.90;42.10;;;;;;4867377;28;45691;-56
2022/06/12 12:15:58;;;;;;;1.55;1.45;;;28.00;42.20;;;;;;4886012;28;45255;-55
2022/06/12 12:18:34;;;;;;;1.40;1.30;;;28.00;42.20;;;;;;4869877;28;46410;-59
2022/06/12 12:21:00;;;;;;;1.45;1.35;;;28.00;42.20;;;;;;4881086;28;45699;-57
2022/06/12 12:23:27;;;;;;;2.60;1.20;;;28.00;42.20;;;;;;4893533;28;45576;-55
2022/06/12 12:26:41;;;;;;;1.35;1.25;;;28.00;42.20;;;;;;4898924;28;45746;-61
2022/06/12 12:29:20;;;;;;;1.17;1.08;;;28.00;42.00;;;;;;4877375;28;45725;-58
2022/06/12 12:31:46;;;;;;;1.45;1.35;;;28.00;42.20;;;;;;4895701;28;45693;-56
2022/06/12 12:34:12;;;;;;;1.75;1.65;;;28.00;42.20;;;;;;4887920;28;45508;-61
2022/06/12 12:42:20;;;;;;;1.85;1.30;;;28.00;42.20;;;;;;4881434;28;47929;-60
2022/06/12 12:44:46;;;;;;;1.23;1.10;;;28.10;42.20;;;;;;4873882;28;46128;-59
2022/06/12 12:47:26;;;;;;;1.42;1.33;;;28.00;42.10;;;;;;4874188;28;45145;-61
2022/06/12 12:50:11;;;;;;;1.83;1.50;;;28.10;42.10;;;;;;4875859;28;45241;-58
2022/06/12 12:52:54;;;;;;;1.70;1.13;;;28.10;42.10;;;;;;4876617;28;45690;-59
2022/06/12 12:56:01;;;;;;;1.17;1.10;;;28.10;42.10;;;;;;4893026;28;45471;-61
2022/06/12 12:58:27;;;;;;;1.27;1.17;;;28.10;42.00;;;;;;4886304;28;45607;-61
2022/06/12 13:01:03;;;;;;;1.13;1.10;;;28.10;42.20;;;;;;4892044;28;45615;-61
2022/06/12 13:03:38;;;;;;;1.38;1.27;;;28.10;42.10;;;;;;4891158;28;46211;-60
2022/06/12 13:06:06;;;;;;;1.15;1.10;;;28.10;42.20;;;;;;4875774;28;45667;-62
2022/06/12 13:08:48;;;;;;;1.38;1.27;;;28.10;42.20;;;;;;4894339;28;45638;-62
2022/06/12 13:11:29;;;;;;;1.38;1.27;;;28.10;42.10;;;;;;4894445;28;45720;-59
2022/06/12 13:14:12;;;;;;;1.77;1.45;;;28.10;42.10;;;;;;4881959;28;45700;-63
2022/06/12 13:17:20;;;;;;;1.90;1.40;;;28.20;42.20;;;;;;4873730;28;45407;-57
2022/06/12 13:20:12;;;;;;;2.13;1.30;;;28.20;42.10;;;;;;4880194;28;45743;-60
2022/06/12 13:22:51;;;;;;;2.00;1.38;;;28.20;42.10;;;;;;4881246;28;45284;-57
2022/06/12 13:25:31;;;;;;;1.50;1.35;;;28.20;42.10;;;;;;4858149;28;46253;-62
2022/06/12 13:27:58;;;;;;;1.63;1.30;;;28.20;42.10;;;;;;4871250;28;45713;-64
2022/06/12 13:30:50;;;;;;;1.38;1.27;;;28.20;42.10;;;;;;4888806;28;44926;-60
2022/06/12 13:33:20;;;;;;;1.70;1.60;;;28.20;42.10;;;;;;4888364;28;46261;-60
2022/06/12 13:35:49;;;;;;;1.67;1.15;;;28.20;42.20;;;;;;4892480;28;45815;-61
2022/06/12 13:38:27;;;;;;;1.40;1.30;;;28.20;42.10;;;;;;4861521;28;45817;-59
2022/06/12 13:41:08;;;;;;;1.33;1.23;;;28.20;42.10;;;;;;4876722;28;45353;-60
2022/06/12 13:43:40;;;;;;;1.77;1.25;;;28.20;42.10;;;;;;4878926;28;45324;-61
2022/06/12 13:46:30;;;;;;;1.77;1.40;;;28.20;42.10;;;;;;4889171;28;45362;-61
2022/06/12 13:48:57;;;;;;;1.65;1.30;;;28.30;42.10;;;;;;4876018;28;45776;-60
2022/06/12 13:51:36;;;;;;;1.60;1.50;;;28.30;42.20;;;;;;4864213;28;45632;-63
2022/06/12 13:54:18;;;;;;;1.50;1.40;;;28.30;42.10;;;;;;4875875;28;45366;-62
2022/06/12 13:56:57;;;;;;;1.33;1.23;;;28.30;42.10;;;;;;4880845;28;45845;-61
2022/06/12 13:59:25;;;;;;;1.70;1.60;;;28.30;42.10;;;;;;4891845;28;45122;-59
2022/06/12 14:01:50;;;;;;;1.42;1.27;;;28.30;42.10;;;;;;4880744;28;45787;-60
2022/06/12 14:04:24;;;;;;;1.50;1.40;;;28.30;42.60;;;;;;4892541;28;45107;-61
2022/06/12 14:06:50;;;;;;;1.35;1.15;;;28.30;42.00;;;;;;4891573;28;46095;-61
2022/06/12 14:09:24;;;;;;;1.67;1.58;;;28.40;42.10;;;;;;4879206;28;45668;-60
2022/06/12 14:11:50;;;;;;;1.25;1.15;;;28.40;42.10;;;;;;4882482;28;46338;-58
2022/06/12 14:14:29;;;;;;;1.58;1.33;;;28.30;42.00;;;;;;4880356;28;45290;-59
2022/06/12 14:16:54;;;;;;;1.50;1.17;;;28.40;42.00;;;;;;4893260;28;46167;-57
2022/06/12 14:19:31;;;;;;;1.60;1.50;;;28.40;42.10;;;;;;4894065;28;45247;-58
2022/06/12 14:22:06;;;;;;;1.63;1.48;;;28.40;42.00;;;;;;4894246;28;45572;-60
2022/06/12 14:24:34;;;;;;;1.92;1.60;;;28.40;42.00;;;;;;4880709;28;45471;-61
2022/06/12 14:26:59;;;;;;;2.88;1.50;;;28.40;42.00;;;;;;4894620;28;45794;-59
2022/06/12 14:29:37;;;;;;;2.25;1.30;;;28.40;42.00;;;;;;4893339;28;45634;-61
2022/06/12 14:32:11;;;;;;;1.55;1.40;;;28.40;42.00;;;;;;4890932;28;45663;-64
2022/06/12 14:34:42;;;;;;;1.60;1.40;;;28.50;42.00;;;;;;4893490;28;45946;-61
2022/06/12 14:37:24;;;;;;;1.20;1.10;;;28.40;42.00;;;;;;4892224;28;45742;-59
2022/06/12 14:39:49;;;;;;;1.50;1.40;;;28.50;42.00;;;;;;4893529;28;45697;-64
2022/06/12 14:42:18;;;;;;;1.58;1.40;;;28.50;42.10;;;;;;4880125;28;45738;-55
2022/06/12 14:44:43;;;;;;;1.38;1.27;;;28.50;42.00;;;;;;4876361;28;45719;-59
2022/06/12 14:47:25;;;;;;;1.60;1.30;;;28.50;42.00;;;;;;4874933;28;46675;-61
2022/06/12 14:49:51;;;;;;;1.60;1.48;;;28.50;42.00;;;;;;4894027;28;45911;-60
2022/06/12 14:52:23;;;;;;;1.45;1.35;;;28.50;42.00;;;;;;4891854;28;45797;-60
2022/06/12 14:54:52;;;;;;;1.88;1.42;;;28.50;42.00;;;;;;4892458;28;45570;-59
2022/06/12 14:57:17;;;;;;;1.52;1.42;;;28.50;42.00;;;;;;4893720;28;45701;-61
2022/06/12 14:59:43;;;;;;;1.40;1.30;;;28.50;42.00;;;;;;4895841;28;45286;-59
2022/06/12 15:02:21;;;;;;;1.50;1.40;;;28.50;42.00;;;;;;4863592;28;45552;-57
2022/06/12 15:04:46;;;;;;;1.58;1.40;;;28.50;42.00;;;;;;4864784;28;45683;-59
2022/06/12 15:07:12;;;;;;;1.75;1.58;;;28.50;42.00;;;;;;4892144;28;45517;-59
2022/06/12 15:09:38;;;;;;;1.75;1.65;;;28.50;42.00;;;;;;4892481;28;45622;-61
2022/06/12 15:12:04;;;;;;;1.40;1.30;;;28.50;42.00;;;;;;4894798;28;46196;-65
2022/06/12 15:14:31;;;;;;;1.35;1.25;;;28.50;42.00;;;;;;4880344;28;45179;-59
2022/06/12 15:16:58;;;;;;;1.27;1.20;;;28.60;41.90;;;;;;4891078;28;47620;-60
2022/06/12 15:19:23;;;;;;;1.40;1.30;;;28.60;41.90;;;;;;4888967;28;45319;-61
2022/06/12 15:21:49;;;;;;;1.33;1.23;;;28.60;42.00;;;;;;4889826;28;45258;-61
2022/06/12 15:24:17;;;;;;;1.50;1.40;;;28.60;41.90;;;;;;4893056;28;45894;-61
2022/06/12 15:32:16;;;;;;;1.45;1.20;;;28.70;41.90;;;;;;4891042;28;45924;-62
2022/06/12 15:34:42;;;;;;;1.55;1.45;;;28.60;41.80;;;;;;4877611;28;45163;-61
2022/06/12 15:37:08;;;;;;;1.40;1.30;;;28.60;41.90;;;;;;4891106;28;45616;-61
2022/06/12 15:39:34;;;;;;;2.20;1.52;;;28.70;41.90;;;;;;4889867;28;46266;-63
2022/06/12 15:42:00;;;;;;;1.60;1.50;;;28.70;41.90;;;;;;4892158;28;45808;-61
2022/06/12 15:44:25;;;;;;;1.40;1.30;;;28.60;41.80;;;;;;4893505;28;45539;-63
2022/06/12 15:46:51;;;;;;;1.00;1.00;;;28.70;41.90;;;;;;4889517;28;45878;-60
2022/06/12 15:49:17;;;;;;;1.60;1.50;;;28.70;41.90;;;;;;4863105;28;46501;-66
2022/06/12 15:51:44;;;;;;;2.10;1.63;;;28.70;41.90;;;;;;4895301;28;45835;-60
2022/06/12 15:54:13;;;;;;;1.40;1.30;;;28.70;41.90;;;;;;4891420;28;45304;-60
2022/06/12 15:56:39;;;;;;;1.65;1.55;;;28.70;41.90;;;;;;4894591;28;45671;-61
2022/06/12 15:59:04;;;;;;;1.40;1.30;;;28.70;41.90;;;;;;4894323;28;45724;-60
2022/06/12 16:01:30;;;;;;;1.48;1.38;;;28.70;41.90;;;;;;4893312;28;45462;-57
2022/06/12 16:03:56;;;;;;;1.52;1.42;;;28.70;41.90;;;;;;4894894;28;45370;-58
2022/06/12 16:06:22;;;;;;;2.00;1.80;;;28.70;41.90;;;;;;4879048;28;45891;-59
2022/06/12 16:08:47;;;;;;;1.52;1.20;;;28.70;41.90;;;;;;4891315;28;45553;-58
2022/06/12 16:11:14;;;;;;;1.58;1.48;;;28.70;41.90;;;;;;4895432;28;45714;-56
2022/06/12 16:13:40;;;;;;;1.48;1.38;;;28.70;41.90;;;;;;4893289;28;45792;-60
2022/06/12 16:16:05;;;;;;;1.33;1.23;;;28.70;41.80;;;;;;4876640;28;45678;-58
2022/06/12 16:18:31;;;;;;;1.80;1.38;;;28.70;41.80;;;;;;4882975;28;45520;-61
2022/06/12 16:20:57;;;;;;;1.30;1.20;;;28.70;41.80;;;;;;4889804;28;46258;-65
2022/06/12 16:23:22;;;;;;;1.50;1.40;;;28.70;41.80;;;;;;4889877;28;45406;-58
2022/06/12 16:25:48;;;;;;;1.60;1.50;;;28.70;41.90;;;;;;4893030;28;47329;-58
2022/06/12 16:28:17;;;;;;;1.50;1.40;;;28.70;41.80;;;;;;4895557;28;45566;-59
2022/06/12 16:30:44;;;;;;;1.48;1.20;;;28.80;41.90;;;;;;4878635;28;46370;-60